createdAt,value
2023-04-16T00:00:15.301Z,98943.80
2023-04-16T00:02:01.146Z,98942.45
2023-04-16T00:03:34.330Z,98943.91
2023-04-16T00:04:49.418Z,98943.35
2023-04-16T00:06:11.913Z,98942.65
2023-04-16T00:07:45.866Z,98939.23
2023-04-16T00:22:53.439Z,98950.86
2023-04-16T00:24:27.439Z,98954.64
2023-04-16T00:25:51.060Z,98956.60
2023-04-16T00:27:24.971Z,98959.88
2023-04-16T00:28:58.948Z,98957.00
2023-04-16T00:30:25.362Z,98953.19
2023-04-16T00:31:59.320Z,98954.70
2023-04-16T00:33:34.819Z,98955.28
2023-04-16T00:35:08.967Z,98951.30
2023-04-16T00:36:43.340Z,98954.52
2023-04-16T00:45:40.944Z,98970.08
2023-04-16T00:47:13.395Z,98968.45
2023-04-16T00:48:45.969Z,98970.37
2023-04-16T00:50:18.503Z,98971.33
2023-04-16T00:51:23.906Z,98969.96
2023-04-16T00:52:56.560Z,98972.65
2023-04-16T00:56:02.046Z,98971.70
2023-04-16T00:57:27.560Z,98973.80
2023-04-16T00:58:58.688Z,98976.05
2023-04-16T01:00:31.221Z,98976.70
2023-04-16T01:01:56.401Z,98977.38
2023-04-16T01:03:11.228Z,98976.77
2023-04-16T01:04:42.799Z,98976.11
2023-04-16T01:05:58.407Z,98975.94
2023-04-16T01:07:31.047Z,98980.60
2023-04-16T01:08:45.128Z,98978.42
2023-04-16T01:10:17.798Z,98980.96
2023-04-16T01:11:50.483Z,98980.19
2023-04-16T01:13:23.007Z,98982.61
2023-04-16T01:14:55.534Z,98983.02
2023-04-16T01:18:27.274Z,98979.05
2023-04-16T01:19:39.653Z,98978.65
2023-04-16T01:21:12.452Z,98977.86
2023-04-16T01:22:45.101Z,98977.86
2023-04-16T01:24:17.931Z,98979.09
2023-04-16T01:25:43.780Z,98975.85
2023-04-16T01:38:59.806Z,98970.77
2023-04-16T01:40:12.274Z,98970.27
2023-04-16T01:40:59.790Z,98975.29
2023-04-16T01:42:24.957Z,98973.04
2023-04-16T01:43:47.696Z,98971.50
2023-04-16T01:45:10.292Z,98970.30
2023-04-16T01:46:06.928Z,98968.82
2023-04-16T01:47:28.470Z,98970.64
2023-04-16T01:48:52.620Z,98971.61
2023-04-16T01:49:52.026Z,98968.72
2023-04-16T01:51:24.494Z,98969.05
2023-04-16T01:52:46.126Z,98969.95
2023-04-16T01:54:00.465Z,98969.70
2023-04-16T01:55:26.620Z,98970.68
2023-04-16T01:56:59.242Z,98975.73
2023-04-16T01:58:33.217Z,98974.11
2023-04-16T01:59:54.713Z,98972.24
2023-04-16T02:01:27.914Z,98977.16
2023-04-16T02:05:46.968Z,98984.67
2023-04-16T02:07:19.588Z,98984.85
2023-04-16T02:08:54.101Z,98985.97
2023-04-16T02:10:26.550Z,98989.27
2023-04-16T02:11:48.195Z,98990.38
2023-04-16T02:13:11.023Z,98990.81
2023-04-16T02:14:32.125Z,98988.13
2023-04-16T02:15:59.136Z,98987.08
2023-04-16T02:17:33.063Z,98987.59
2023-04-16T02:18:59.572Z,98988.16
2023-04-16T02:20:10.055Z,98987.52
2023-04-16T02:24:21.551Z,98987.58
2023-04-16T02:27:31.856Z,98985.64
2023-04-16T02:29:04.299Z,98985.58
2023-04-16T02:30:05.105Z,98983.86
2023-04-16T02:31:30.705Z,98986.79
2023-04-16T02:33:04.386Z,98983.46
2023-04-16T02:34:27.330Z,98982.87
2023-04-16T02:35:39.511Z,98985.95
2023-04-16T02:36:59.647Z,98992.02
2023-04-16T02:38:33.212Z,98992.48
2023-04-16T02:41:31.877Z,98999.32
2023-04-16T02:43:03.800Z,98999.94
2023-04-16T02:44:34.892Z,98997.61
2023-04-16T02:45:44.345Z,98998.56
2023-04-16T02:47:16.827Z,99002.55
2023-04-16T02:48:49.586Z,98999.09
2023-04-16T02:50:04.968Z,98995.77
2023-04-16T02:51:37.512Z,98992.19
2023-04-16T02:53:10.006Z,98995.94
2023-04-16T02:54:42.503Z,98996.38
2023-04-16T02:55:54.829Z,98997.04
2023-04-16T02:57:07.303Z,98996.05
2023-04-16T02:58:39.914Z,98997.77
2023-04-16T02:59:55.876Z,98998.48
2023-04-16T03:01:28.821Z,98999.06
2023-04-16T03:02:41.538Z,98999.27
2023-04-16T03:04:15.560Z,98999.28
2023-04-16T03:12:04.596Z,99006.34
2023-04-16T03:13:30.192Z,99005.13
2023-04-16T03:15:02.709Z,99014.23
2023-04-16T03:16:35.396Z,99017.63
2023-04-16T03:18:07.925Z,99021.39
2023-04-16T03:19:40.453Z,99025.81
2023-04-16T03:21:13.004Z,99028.93
2023-04-16T03:22:45.586Z,99027.05
2023-04-16T03:24:18.347Z,99029.33
2023-04-16T03:25:39.803Z,99029.13
2023-04-16T03:35:02.027Z,99026.58
2023-04-16T03:36:14.440Z,99024.66
2023-04-16T03:37:27.030Z,99028.27
2023-04-16T03:38:59.658Z,99023.77
2023-04-16T03:40:13.628Z,99023.56
2023-04-16T03:41:34.868Z,99021.27
2023-04-16T03:42:47.258Z,99024.45
2023-04-16T03:44:13.546Z,99028.13
2023-04-16T03:45:46.226Z,99030.14
2023-04-16T03:47:19.048Z,99028.77
2023-04-16T04:08:09.827Z,99043.19
2023-04-16T04:09:21.908Z,99051.90
2023-04-16T04:10:54.378Z,99051.50
2023-04-16T04:12:27.186Z,99054.52
2023-04-16T04:14:00.641Z,99052.58
2023-04-16T04:29:24.666Z,99060.11
2023-04-16T04:30:57.163Z,99059.77
2023-04-16T04:32:29.728Z,99060.93
2023-04-16T04:34:02.286Z,99062.77
2023-04-16T04:35:34.736Z,99066.44
2023-04-16T04:36:53.639Z,99066.91
2023-04-16T04:38:19.573Z,99071.89
2023-04-16T04:39:54.032Z,99073.94
2023-04-16T04:41:13.265Z,99073.27
2023-04-16T04:42:35.177Z,99078.82
2023-04-16T04:44:07.910Z,99077.29
2023-04-16T04:45:31.690Z,99075.77
2023-04-16T04:47:05.684Z,99078.51
2023-04-16T04:48:38.513Z,99075.92
2023-04-16T04:53:18.944Z,99072.90
2023-04-16T04:55:06.472Z,99074.87
2023-04-16T04:56:39.172Z,99078.84
2023-04-16T04:58:12.916Z,99076.19
2023-04-16T04:59:45.832Z,99079.23
2023-04-16T05:00:58.219Z,99079.01
2023-04-16T05:02:10.856Z,99080.30
2023-04-16T05:03:44.090Z,99082.38
2023-04-16T05:05:09.245Z,99087.23
2023-04-16T05:06:43.298Z,99086.00
2023-04-16T05:08:21.543Z,99088.20
2023-04-16T05:09:59.835Z,99088.52
2023-04-16T05:11:32.432Z,99097.38
2023-04-16T05:13:05.147Z,99099.81
2023-04-16T05:14:39.073Z,99098.77
2023-04-16T05:16:05.258Z,99099.22
2023-04-16T05:17:19.227Z,99091.95
2023-04-16T05:25:57.645Z,99099.28
2023-04-16T05:27:19.976Z,99097.94
2023-04-16T05:45:02.081Z,99116.20
2023-04-16T05:46:36.075Z,99115.12
2023-04-16T05:47:48.862Z,99115.61
2023-04-16T05:49:21.783Z,99117.05
2023-04-16T05:50:54.494Z,99119.41
2023-04-16T05:52:10.125Z,99118.11
2023-04-16T05:53:43.849Z,99123.64
2023-04-16T05:55:16.641Z,99121.65
2023-04-16T05:56:49.085Z,99122.48
2023-04-16T05:58:11.761Z,99123.59
2023-04-16T06:02:37.821Z,99136.23
2023-04-16T06:03:59.863Z,99140.58
2023-04-16T06:05:33.650Z,99137.61
2023-04-16T06:07:11.947Z,99142.66
2023-04-16T06:08:44.631Z,99139.24
2023-04-16T06:10:06.010Z,99144.25
2023-04-16T06:11:21.359Z,99139.83
2023-04-16T06:12:53.874Z,99144.41
2023-04-16T06:14:27.293Z,99144.71
2023-04-16T06:21:46.177Z,99154.68
2023-04-16T06:23:23.618Z,99155.90
2023-04-16T06:24:57.010Z,99160.20
2023-04-16T06:26:32.258Z,99162.16
2023-04-16T06:38:07.797Z,99174.07
2023-04-16T06:39:31.585Z,99179.11
2023-04-16T06:41:05.614Z,99175.13
2023-04-16T06:42:39.453Z,99172.02
2023-04-16T06:44:13.497Z,99175.11
2023-04-16T06:45:27.440Z,99177.11
2023-04-16T06:46:50.368Z,99178.52
2023-04-16T06:47:56.798Z,99177.45
2023-04-16T06:49:30.409Z,99172.44
2023-04-16T06:51:04.467Z,99176.65
2023-04-16T06:52:31.110Z,99178.69
2023-04-16T06:54:05.305Z,99182.05
2023-04-16T06:55:39.734Z,99185.44
2023-04-16T07:01:28.737Z,99188.76
2023-04-16T07:09:25.697Z,99192.44
2023-04-16T07:10:45.835Z,99195.06
2023-04-16T07:12:19.625Z,99199.45
2023-04-16T07:13:53.470Z,99198.23
2023-04-16T07:15:26.181Z,99196.89
2023-04-16T07:16:58.730Z,99192.92
2023-04-16T07:18:31.520Z,99190.37
2023-04-16T07:20:04.114Z,99195.25
2023-04-16T07:21:12.257Z,99202.42
2023-04-16T07:22:33.884Z,99204.94
2023-04-16T07:24:07.768Z,99202.09
2023-04-16T07:36:48.332Z,99212.84
2023-04-16T07:38:20.926Z,99216.50
2023-04-16T07:39:55.118Z,99213.89
2023-04-16T07:41:28.674Z,99217.79
2023-04-16T07:43:01.437Z,99218.83
2023-04-16T07:44:35.145Z,99220.61
2023-04-16T07:46:08.034Z,99231.04
2023-04-16T07:55:29.659Z,99232.73
2023-04-16T07:57:02.060Z,99241.95
2023-04-16T07:58:09.942Z,99245.45
2023-04-16T07:59:31.237Z,99248.40
2023-04-16T08:00:54.133Z,99250.23
2023-04-16T08:02:26.849Z,99245.66
2023-04-16T08:03:39.477Z,99245.52
2023-04-16T08:05:13.287Z,99247.80
2023-04-16T08:06:18.883Z,99250.59
2023-04-16T08:07:50.274Z,99251.59
2023-04-16T08:09:22.826Z,99255.85
2023-04-16T08:10:35.013Z,99255.79
2023-04-16T08:11:47.775Z,99254.39
2023-04-16T08:13:13.418Z,99257.27
2023-04-16T08:14:45.951Z,99263.36
2023-04-16T08:16:09.030Z,99258.70
2023-04-16T08:17:30.611Z,99258.73
2023-04-16T08:19:04.305Z,99259.45
2023-04-16T08:20:38.268Z,99260.30
2023-04-16T08:24:06.375Z,99266.67
2023-04-16T08:25:19.484Z,99263.96
2023-04-16T08:26:51.914Z,99269.81
2023-04-16T08:28:13.580Z,99269.68
2023-04-16T08:39:14.550Z,99258.56
2023-04-16T08:40:48.665Z,99257.30
2023-04-16T08:42:21.253Z,99256.46
2023-04-16T08:43:39.072Z,99256.30
2023-04-16T08:45:11.597Z,99257.11
2023-04-16T08:46:44.506Z,99255.44
2023-04-16T08:47:56.910Z,99257.22
2023-04-16T08:49:29.775Z,99257.06
2023-04-16T08:51:05.677Z,99259.56
2023-04-16T08:52:40.220Z,99260.76
2023-04-16T08:54:14.493Z,99265.44
2023-04-16T08:55:48.882Z,99265.09
2023-04-16T08:57:23.305Z,99269.74
2023-04-16T08:58:57.557Z,99267.27
2023-04-16T09:05:18.542Z,99267.96
2023-04-16T09:06:51.038Z,99270.10
2023-04-16T09:08:26.166Z,99270.35
2023-04-16T09:09:59.014Z,99267.54
2023-04-16T09:11:11.170Z,99274.75
2023-04-16T09:12:43.972Z,99268.95
2023-04-16T09:14:17.797Z,99271.61
2023-04-16T09:15:51.988Z,99266.55
2023-04-16T09:16:57.412Z,99267.33
2023-04-16T09:18:30.051Z,99268.05
2023-04-16T09:20:03.960Z,99269.20
2023-04-16T09:22:29.764Z,99268.10
2023-04-16T09:24:03.807Z,99270.20
2023-04-16T09:26:43.227Z,99265.92
2023-04-16T09:28:18.375Z,99264.46
2023-04-16T09:29:52.051Z,99265.77
2023-04-16T09:31:08.384Z,99268.77
2023-04-16T09:32:44.497Z,99270.60
2023-04-16T10:01:28.080Z,99277.06
2023-04-16T10:03:01.999Z,99285.13
2023-04-16T10:04:34.893Z,99275.89
2023-04-16T10:06:07.616Z,99279.77
2023-04-16T10:07:43.456Z,99279.16
2023-04-16T10:11:15.361Z,99277.39
2023-04-16T10:12:48.998Z,99277.06
2023-04-16T10:14:21.472Z,99281.94
2023-04-16T10:15:54.248Z,99283.08
2023-04-16T10:17:06.627Z,99274.06
2023-04-16T10:18:39.808Z,99277.66
2023-04-16T10:19:52.667Z,99280.83
2023-04-16T10:21:05.177Z,99280.95
2023-04-16T10:22:38.324Z,99273.41
2023-04-16T10:24:12.337Z,99275.51
2023-04-16T10:25:46.239Z,99274.25
2023-04-16T10:26:58.704Z,99272.38
2023-04-16T10:28:31.054Z,99267.88
2023-04-16T10:30:03.814Z,99267.09
2023-04-16T10:31:36.457Z,99268.37
2023-04-16T10:33:09.684Z,99265.42
2023-04-16T10:34:47.879Z,99270.32
2023-04-16T10:36:13.354Z,99269.59
2023-04-16T10:45:52.551Z,99263.01
2023-04-16T10:47:25.077Z,99264.66
2023-04-16T10:49:11.271Z,99265.93
2023-04-16T10:50:44.120Z,99267.63
2023-04-16T10:52:25.512Z,99263.69
2023-04-16T10:54:07.194Z,99256.67
2023-04-16T10:55:39.897Z,99255.23
2023-04-16T10:57:13.547Z,99260.08
2023-04-16T10:58:46.299Z,99256.78
2023-04-16T11:00:10.069Z,99254.36
2023-04-16T11:05:03.686Z,99252.58
2023-04-16T11:14:29.778Z,99249.09
2023-04-16T11:15:42.967Z,99250.05
2023-04-16T11:17:18.143Z,99252.29
2023-04-16T11:18:54.554Z,99245.52
2023-04-16T11:20:30.205Z,99247.80
2023-04-16T11:21:53.367Z,99249.41
2023-04-16T11:23:27.450Z,99247.92
2023-04-16T11:25:02.408Z,99248.04
2023-04-16T11:26:26.396Z,99248.13
2023-04-16T11:50:28.273Z,99236.67
2023-04-16T11:52:00.913Z,99235.89
2023-04-16T11:53:33.422Z,99233.52
2023-04-16T11:55:06.100Z,99229.68
2023-04-16T11:56:44.907Z,99234.09
2023-04-16T11:58:17.608Z,99240.16
2023-04-16T12:00:01.615Z,99238.39
2023-04-16T12:01:24.282Z,99234.98
2023-04-16T12:02:57.140Z,99234.48
2023-04-16T12:04:38.950Z,99231.83
2023-04-16T12:06:26.252Z,99233.16
2023-04-16T12:08:04.837Z,99230.60
2023-04-16T12:16:08.827Z,99231.80
2023-04-16T12:17:56.300Z,99229.34
2023-04-16T12:19:41.093Z,99232.14
2023-04-16T12:21:02.470Z,99229.38
2023-04-16T12:22:34.673Z,99229.95
2023-04-16T12:25:42.129Z,99223.42
2023-04-16T12:33:48.750Z,99222.27
2023-04-16T12:35:22.068Z,99226.35
2023-04-16T12:37:00.768Z,99219.90
2023-04-16T12:38:24.245Z,99223.41
2023-04-16T12:39:57.254Z,99222.27
2023-04-16T12:41:30.005Z,99224.08
2023-04-16T12:42:35.805Z,99220.64
2023-04-16T12:44:08.647Z,99217.13
2023-04-16T12:47:40.469Z,99219.46
2023-04-16T12:49:13.059Z,99218.86
2023-04-16T12:50:16.821Z,99218.91
2023-04-16T12:51:49.363Z,99218.50
2023-04-16T12:53:01.618Z,99216.34
2023-04-16T12:54:05.317Z,99217.92
2023-04-16T12:55:17.492Z,99212.70
2023-04-16T12:56:50.051Z,99210.76
2023-04-16T12:58:22.650Z,99210.62
2023-04-16T12:59:55.198Z,99211.52
2023-04-16T13:01:27.887Z,99212.39
2023-04-16T13:09:20.202Z,99214.85
2023-04-16T13:10:41.774Z,99215.71
2023-04-16T13:12:14.227Z,99219.09
2023-04-16T13:13:46.928Z,99218.27
2023-04-16T13:15:00.674Z,99209.73
2023-04-16T13:16:27.091Z,99210.42
2023-04-16T13:17:59.852Z,99207.34
2023-04-16T13:19:12.258Z,99213.58
2023-04-16T13:20:45.113Z,99212.30
2023-04-16T13:22:17.558Z,99213.61
2023-04-16T13:23:50.439Z,99214.70
2023-04-16T13:25:02.804Z,99216.52
2023-04-16T13:26:19.430Z,99216.20
2023-04-16T13:41:57.822Z,99203.20
2023-04-16T13:43:22.837Z,99202.48
2023-04-16T13:44:45.733Z,99200.31
2023-04-16T13:46:18.228Z,99199.70
2023-04-16T14:55:42.611Z,99174.61
2023-04-16T14:57:15.296Z,99173.93
2023-04-16T14:58:39.272Z,99175.55
2023-04-16T14:59:51.804Z,99178.95
2023-04-16T15:01:04.154Z,99178.16
2023-04-16T15:02:37.287Z,99176.88
2023-04-16T15:04:10.418Z,99180.17
2023-04-16T15:05:35.814Z,99186.27
2023-04-16T15:06:56.871Z,99184.73
2023-04-16T15:08:12.255Z,99183.70
2023-04-16T15:09:44.917Z,99182.48
2023-04-16T15:18:40.738Z,99188.73
2023-04-16T15:20:14.368Z,99189.82
2023-04-16T15:21:48.848Z,99187.59
2023-04-16T15:23:22.857Z,99186.88
2023-04-16T15:48:13.360Z,99209.99
2023-04-16T15:49:46.043Z,99209.27
2023-04-16T15:51:19.114Z,99212.70
2023-04-16T15:52:52.620Z,99211.28
2023-04-16T15:54:26.607Z,99215.01
2023-04-16T16:18:36.744Z,99217.70
2023-04-16T16:20:09.360Z,99219.22
2023-04-16T16:21:42.118Z,99217.79
2023-04-16T16:23:14.924Z,99220.39
2023-04-16T16:24:27.699Z,99215.94
2023-04-16T16:26:01.633Z,99214.75
2023-04-16T16:34:30.319Z,99228.79
2023-04-16T16:36:04.380Z,99227.64
2023-04-16T16:37:31.297Z,99230.64
2023-04-16T16:38:58.097Z,99228.11
2023-04-16T16:40:25.063Z,99228.33
2023-04-16T16:41:40.379Z,99232.90
2023-04-16T16:43:15.035Z,99234.31
2023-04-16T16:44:50.344Z,99234.06
2023-04-16T16:46:31.051Z,99233.87
2023-04-16T16:48:05.352Z,99236.67
2023-04-16T16:49:32.043Z,99238.99
2023-04-16T16:51:07.127Z,99236.46
2023-04-16T17:13:30.398Z,99268.11
2023-04-16T17:14:54.159Z,99270.58
2023-04-16T17:27:27.929Z,99280.32
2023-04-16T17:29:00.502Z,99280.95
2023-04-16T17:30:33.119Z,99281.83
2023-04-16T17:32:06.692Z,99282.30
2023-04-16T17:33:39.378Z,99279.08
2023-04-16T17:35:13.279Z,99282.15
2023-04-16T17:36:48.355Z,99284.15
2023-04-16T17:38:22.217Z,99286.38
2023-04-16T17:44:59.920Z,99289.39
2023-04-16T17:46:32.230Z,99291.42
2023-04-16T17:48:05.275Z,99294.29
2023-04-16T17:49:17.395Z,99292.59
2023-04-16T17:50:49.924Z,99296.04
2023-04-16T17:52:11.484Z,99298.64
2023-04-16T17:53:44.014Z,99299.96
2023-04-16T17:55:02.981Z,99298.59
2023-04-16T17:58:34.532Z,99303.42
2023-04-16T18:00:07.135Z,99309.58
2023-04-16T18:01:31.512Z,99309.05
2023-04-16T18:03:04.376Z,99307.22
2023-04-16T18:04:16.970Z,99311.34
2023-04-16T18:05:49.926Z,99314.92
2023-04-16T18:07:22.554Z,99317.84
2023-04-16T18:08:30.653Z,99316.86
2023-04-16T18:09:43.189Z,99318.32
2023-04-16T18:10:56.952Z,99320.55
2023-04-16T18:12:09.184Z,99319.05
2023-04-16T18:13:42.143Z,99322.63
2023-04-16T18:14:54.699Z,99322.45
2023-04-16T18:16:07.425Z,99327.14
2023-04-16T18:17:34.581Z,99326.33
2023-04-16T18:19:07.437Z,99325.91
2023-04-16T18:20:10.633Z,99325.30
2023-04-16T18:21:33.168Z,99326.07
2023-04-16T18:22:45.329Z,99326.23
2023-04-16T18:23:55.436Z,99331.20
2023-04-16T18:25:29.934Z,99327.66
2023-04-16T18:26:49.525Z,99332.18
2023-04-16T18:28:22.190Z,99327.86
2023-04-16T18:29:55.375Z,99332.19
2023-04-16T18:31:03.445Z,99333.45
2023-04-16T18:32:35.077Z,99334.23
2023-04-16T18:33:57.531Z,99338.86
2023-04-16T18:35:13.976Z,99342.42
2023-04-16T18:36:46.570Z,99341.44
2023-04-16T18:38:19.484Z,99341.45
2023-04-16T18:39:31.628Z,99343.87
2023-04-16T18:41:04.568Z,99348.15
2023-04-16T18:42:26.403Z,99348.21
2023-04-16T18:43:40.672Z,99346.48
2023-04-16T18:45:15.786Z,99349.48
2023-04-16T18:46:46.217Z,99346.47
2023-04-16T18:48:18.828Z,99346.42
2023-04-16T18:49:41.366Z,99342.83
2023-04-16T18:50:36.397Z,99344.61
2023-04-16T18:52:01.575Z,99344.50
2023-04-16T18:53:34.122Z,99343.30
2023-04-16T18:54:55.266Z,99343.65
2023-04-16T18:56:28.056Z,99344.15
2023-04-16T18:57:49.187Z,99343.77
2023-04-16T18:59:10.911Z,99340.54
2023-04-16T19:01:53.915Z,99340.77
2023-04-16T19:03:07.273Z,99340.45
2023-04-16T19:04:40.225Z,99342.21
2023-04-16T19:06:13.241Z,99339.73
2023-04-16T19:07:45.833Z,99335.31
2023-04-16T19:15:54.579Z,99337.85
2023-04-16T19:17:28.158Z,99335.11
2023-04-16T19:18:33.921Z,99340.27
2023-04-16T19:19:35.495Z,99342.29
2023-04-16T19:20:47.742Z,99342.53
2023-04-16T19:22:20.262Z,99340.84
2023-04-16T19:23:45.632Z,99339.39
2023-04-16T19:33:35.610Z,99337.20
2023-04-16T19:35:11.399Z,99341.09
2023-04-16T19:36:43.972Z,99336.48
2023-04-16T19:38:16.551Z,99340.51
2023-04-16T19:39:49.922Z,99335.61
2023-04-16T19:41:24.436Z,99336.09
2023-04-16T19:42:56.844Z,99332.50
2023-04-16T19:49:49.574Z,99326.20
2023-04-16T19:51:22.555Z,99325.09
2023-04-16T19:52:44.019Z,99319.98
2023-04-16T19:54:06.610Z,99318.37
2023-04-16T20:06:26.584Z,99306.88
2023-04-16T20:07:59.233Z,99312.48
2023-04-16T20:09:31.785Z,99315.83
2023-04-16T20:11:05.425Z,99318.94
2023-04-16T20:12:38.286Z,99316.25
2023-04-16T20:23:07.843Z,99314.55
2023-04-16T20:24:21.404Z,99312.20
2023-04-16T20:25:55.390Z,99317.27
2023-04-16T20:27:12.466Z,99312.52
2023-04-16T20:28:46.457Z,99314.03
2023-04-16T20:30:20.383Z,99313.13
2023-04-16T20:31:55.535Z,99313.25
2023-04-16T20:33:18.606Z,99310.60
2023-04-16T20:47:55.805Z,99311.21
2023-04-16T20:49:08.319Z,99310.71
2023-04-16T20:50:23.522Z,99310.39
2023-04-16T20:52:02.297Z,99311.36
2023-04-16T20:53:34.863Z,99314.55
2023-04-16T20:54:54.821Z,99317.23
2023-04-16T20:56:27.206Z,99314.58
2023-04-16T20:57:45.747Z,99313.48
2023-04-16T20:59:03.329Z,99312.66
2023-04-16T21:00:19.997Z,99313.60
2023-04-16T21:01:52.754Z,99309.41
2023-04-16T21:03:25.617Z,99308.31
2023-04-16T21:04:31.098Z,99310.86
2023-04-16T21:05:53.823Z,99309.27
2023-04-16T21:07:26.341Z,99306.54
2023-04-16T21:08:57.820Z,99309.40
2023-04-16T21:10:19.516Z,99303.98
2023-04-16T21:12:58.068Z,99307.02
2023-04-16T21:14:29.145Z,99305.57
2023-04-16T21:15:35.443Z,99303.43
2023-04-16T21:16:43.894Z,99302.02
2023-04-16T21:18:05.513Z,99300.61
2023-04-16T21:19:27.383Z,99298.08
2023-04-16T21:21:00.142Z,99299.36
2023-04-16T21:22:05.278Z,99299.64
2023-04-16T21:23:30.642Z,99298.03
2023-04-16T21:24:56.557Z,99301.65
2023-04-16T21:26:29.257Z,99304.61
2023-04-16T21:27:21.464Z,99302.83
2023-04-16T21:28:34.563Z,99302.31
2023-04-16T21:29:20.248Z,99305.92
2023-04-16T21:30:45.769Z,99308.29
2023-04-16T21:32:18.238Z,99307.59
2023-04-16T21:33:50.797Z,99303.65
2023-04-16T21:35:11.891Z,99305.58
2023-04-16T21:36:44.522Z,99308.14
2023-04-16T21:38:17.173Z,99305.85
2023-04-16T21:39:49.740Z,99308.79
2023-04-16T21:41:21.121Z,99302.95
2023-04-16T21:42:53.677Z,99305.33
2023-04-16T21:44:26.490Z,99304.13
2023-04-16T21:45:58.969Z,99307.08
2023-04-16T21:47:31.986Z,99303.73
2023-04-16T21:48:47.868Z,99301.77
2023-04-16T21:50:09.167Z,99302.80
2023-04-16T21:51:42.117Z,99300.55
2023-04-16T21:52:54.370Z,99302.73
2023-04-16T21:54:20.508Z,99303.23
2023-04-16T21:55:42.928Z,99300.44
2023-04-16T21:57:15.134Z,99302.14
2023-04-16T21:58:36.962Z,99299.95
2023-04-16T21:59:51.434Z,99301.58
2023-04-16T22:03:58.390Z,99305.14
2023-04-16T22:05:17.075Z,99307.66
2023-04-16T22:06:39.995Z,99309.63
2023-04-16T22:08:23.984Z,99306.27
2023-04-16T22:09:47.257Z,99309.75
2023-04-16T22:10:41.100Z,99307.25
2023-04-16T22:12:12.533Z,99309.02
2023-04-16T22:13:45.108Z,99308.11
2023-04-16T22:15:10.485Z,99304.77
2023-04-16T22:16:37.755Z,99306.27
2023-04-16T22:18:10.304Z,99306.23
2023-04-16T22:19:42.850Z,99306.96
2023-04-16T22:21:15.951Z,99304.23
2023-04-16T22:24:09.108Z,99303.84
2023-04-16T22:25:23.108Z,99304.27
2023-04-16T22:26:56.677Z,99305.31
2023-04-16T22:28:30.586Z,99304.50
2023-04-16T22:30:03.373Z,99302.06
2023-04-16T22:42:44.883Z,99302.17
2023-04-16T22:44:11.883Z,99301.72
2023-04-16T22:45:37.639Z,99300.48
2023-04-16T22:47:01.619Z,99298.39
2023-04-16T22:50:08.054Z,99297.82
2023-04-16T22:51:29.311Z,99298.42
2023-04-16T22:52:51.947Z,99294.23
2023-04-16T22:54:24.485Z,99297.08
2023-04-16T22:55:56.958Z,99295.61
2023-04-16T22:57:18.156Z,99290.05
2023-04-16T22:58:50.574Z,99292.14
2023-04-16T23:00:23.214Z,99288.20
2023-04-16T23:09:28.375Z,99288.20
2023-04-16T23:11:02.382Z,99290.52
2023-04-16T23:12:25.163Z,99290.65
2023-04-16T23:13:39.057Z,99289.20
2023-04-16T23:15:13.008Z,99286.93
2023-04-16T23:16:48.028Z,99286.73
2023-04-16T23:18:23.104Z,99283.40
2023-04-16T23:19:57.035Z,99283.17
2023-04-16T23:21:31.060Z,99281.98
2023-04-16T23:23:06.315Z,99280.67
2023-04-16T23:24:41.406Z,99279.38
2023-04-16T23:26:16.870Z,99277.74
2023-04-16T23:27:52.264Z,99276.58
2023-04-16T23:29:27.689Z,99279.05
2023-04-16T23:31:01.847Z,99277.68
2023-04-16T23:32:35.882Z,99279.35
2023-04-16T23:34:11.365Z,99282.27
2023-04-16T23:35:47.115Z,99284.25
2023-04-16T23:37:22.474Z,99278.83
2023-04-16T23:38:58.093Z,99277.45
2023-04-16T23:40:33.318Z,99277.22
2023-04-16T23:56:05.562Z,99278.98
2023-04-16T23:57:39.368Z,99275.18
2023-04-16T23:59:13.788Z,99277.15
